Великие Луки

Карта отелей и гостиниц, располагающихся рядом с аэропортом Великие Луки :

Великие Луки Псковская область 56° 22' 52.6188" N, 30° 36' 27.4788" E
Великие Луки Псковская область 56° 22' 52.6188" N, 30° 36' 27.4788" E
Код аэродрома ИКАО
ULOL
Код аэродрома RU
УЛОЛ
Координаты
N56.38128° E030.60763°
Превышение над уровнем моря
101
Основная полоса
14/32
Курс магнитный
143,8/323,8
Длина основной ВПП
1425
Ширина основной ВПП
40
Покрытие основной ВПП
Твёрдое
Освещение ВПП
Постоянное
Тип: 
Аэродром
Класс аэродрома: 
Принадлежность: 
ДОСААФ
Статус: 
Недействующий
Сайт: 
http://www.aviapages.ru/airports/24583311008586406.shtml
E-mail аэродрома: 
Страна: 
Россия
Регион: 
Псковская область
Город: 
Дополнительная информация: 
Оператор: нет данных. Нкр.=(500)м.

Найти трансфер

С помощью этой формы Вы можете найти трансфер из аэропорта Великие Луки в город, аэропорт или вокзал:

Карта места

Javascript is required to view this map.

Погода в аэропортах:

Авиационная погода в Ханты-Мансийске

Регион: 
Погода METAR: 
USHH 171530Z 30003MPS 240V330 9999 -RA BKN014 05/05 Q0991 R06/290050 TEMPO 3100 -RA BKN004
Время наблюдения
2021-09-17T15:30:00Z
Температура C
5.0
Точка росы
5.0
Направление ветра
300
Скорость ветра (узлы)
6
Метео видимость
6.21
Явления погоды
-RA
Условия полета
MVFR
Аэропорт подробнее: 

Авиационная погода в Брянске

Регион: 
Погода METAR: 
UUBP 171530Z AUTO 06004MPS 9000 -RA 07/07 Q1015 RMK QFE744/0992
Время наблюдения
2021-09-17T15:30:00Z
Температура C
7.0
Точка росы
7.0
Направление ветра
60
Скорость ветра (узлы)
8
Метео видимость
5.59
Явления погоды
-RA
Условия полета
Аэропорт подробнее: 

Авиационная погода в аэропорту Сокол

Регион: 
Погода METAR: 
UHMM 171600Z 10007MPS 9999 -SHRA BKN015CB OVC025 08/06 Q1012 RMK QFE744 R28/13005MPS
Время наблюдения
2021-09-17T16:00:00Z
Температура C
8.0
Точка росы
6.0
Направление ветра
100
Скорость ветра (узлы)
14
Метео видимость
6.21
Явления погоды
-SHRA
Условия полета
MVFR
Аэропорт подробнее: 

Авиационная погода в Якутске

Регион: 
Погода METAR: 
UEEE 171530Z 29002MPS 9999 -SHRA BKN020CB 07/06 Q0998 R23L/290155 NOSIG RMK QFE740
Время наблюдения
2021-09-17T15:30:00Z
Температура C
7.0
Точка росы
6.0
Направление ветра
290
Скорость ветра (узлы)
4
Метео видимость
6.21
Явления погоды
-SHRA
Условия полета
MVFR
Аэропорт подробнее: